Time;durP1;ratioP1;P1;durP2;ratioP2;P2;SDS_P1;SDS_P2;PMS_P1;PMS_P2;Temp;Humidity;BMP_temperature;BMP_pressure;BME280_temperature;BME280_humidity;BME280_pressure;Samples;Min_cycle;Max_cycle;Signal;HPM_P1;HPM_P2
2022/07/17 00:02:26;;;;;;;8.82;6.32;;;25.40;80.70;;;;;;5048439;28;20199;-76
2022/07/17 00:04:56;;;;;;;11.40;6.25;;;25.40;80.80;;;;;;5061853;28;20190;-76
2022/07/17 00:07:26;;;;;;;10.40;6.57;;;25.40;80.80;;;;;;5052005;28;20197;-77
2022/07/17 00:09:54;;;;;;;13.65;6.47;;;25.40;81.00;;;;;;5063213;28;20224;-76
2022/07/17 00:12:23;;;;;;;10.52;6.88;;;25.30;80.90;;;;;;5058372;28;20187;-77
2022/07/17 00:14:51;;;;;;;13.75;6.78;;;25.30;81.00;;;;;;5055595;28;20221;-77
2022/07/17 00:17:21;;;;;;;8.73;6.43;;;25.30;81.00;;;;;;5050373;28;20194;-77
2022/07/17 00:19:49;;;;;;;10.60;6.38;;;25.30;81.10;;;;;;5050133;28;20199;-77
2022/07/17 00:22:18;;;;;;;10.10;6.72;;;25.30;81.10;;;;;;5046810;28;20213;-76
2022/07/17 00:24:48;;;;;;;14.38;7.07;;;25.30;81.20;;;;;;5050675;28;20203;-77
2022/07/17 00:27:16;;;;;;;12.82;7.63;;;25.20;81.40;;;;;;5062506;28;20202;-77
2022/07/17 00:29:44;;;;;;;9.82;6.82;;;25.20;81.50;;;;;;5055818;28;20191;-77
2022/07/17 00:32:13;;;;;;;13.10;7.25;;;25.20;81.50;;;;;;5066748;28;20202;-77
2022/07/17 00:34:42;;;;;;;13.02;7.93;;;25.20;81.60;;;;;;5045220;28;20717;-78
2022/07/17 00:37:12;;;;;;;10.85;6.97;;;25.20;81.60;;;;;;5066175;28;20252;-77
2022/07/17 00:39:40;;;;;;;10.63;7.20;;;25.10;81.60;;;;;;5053049;28;21015;-78
2022/07/17 00:42:13;;;;;;;12.73;7.65;;;25.10;81.60;;;;;;5060670;28;20654;-78
2022/07/17 00:44:42;;;;;;;16.85;7.97;;;25.10;81.70;;;;;;5046932;28;20214;-78
2022/07/17 00:47:14;;;;;;;12.85;8.05;;;25.10;81.80;;;;;;5054830;28;20198;-78
2022/07/17 00:49:43;;;;;;;12.30;7.78;;;25.10;81.90;;;;;;5053624;28;20194;-77
2022/07/17 00:52:12;;;;;;;13.50;7.93;;;25.00;81.90;;;;;;5057106;28;20190;-78
2022/07/17 00:54:42;;;;;;;16.10;7.95;;;25.00;82.10;;;;;;5057233;28;20210;-77
2022/07/17 00:57:14;;;;;;;11.30;7.32;;;25.00;82.10;;;;;;5048961;28;20428;-77
2022/07/17 00:59:43;;;;;;;11.07;8.00;;;25.00;82.20;;;;;;5065968;28;20676;-77
2022/07/17 01:02:13;;;;;;;13.00;7.60;;;24.90;82.20;;;;;;5059766;28;20222;-77
2022/07/17 01:04:42;;;;;;;15.88;8.00;;;24.90;82.30;;;;;;5044946;28;20191;-78
2022/07/17 01:07:10;;;;;;;10.68;7.63;;;24.90;82.60;;;;;;5057474;28;20194;-76
2022/07/17 01:09:39;;;;;;;10.73;7.70;;;24.90;83.00;;;;;;5065068;28;20195;-76
2022/07/17 01:12:09;;;;;;;11.23;7.68;;;24.80;82.90;;;;;;5056202;28;20198;-78
2022/07/17 01:14:40;;;;;;;11.48;8.43;;;24.80;82.90;;;;;;5057053;28;20190;-78
2022/07/17 01:17:08;;;;;;;12.63;8.32;;;24.80;83.00;;;;;;5060679;28;20263;-76
2022/07/17 01:19:40;;;;;;;11.10;8.15;;;24.80;83.10;;;;;;5060560;28;20199;-78
2022/07/17 01:22:10;;;;;;;10.57;8.02;;;24.70;83.30;;;;;;5062913;28;20278;-78
2022/07/17 01:24:40;;;;;;;10.05;7.40;;;24.70;83.30;;;;;;5057818;28;20195;-79
2022/07/17 01:27:09;;;;;;;11.10;7.68;;;24.70;83.40;;;;;;5060629;28;20912;-78
2022/07/17 01:29:40;;;;;;;11.95;7.35;;;24.70;83.30;;;;;;5051245;28;20198;-78
2022/07/17 01:32:08;;;;;;;13.27;7.80;;;24.60;83.20;;;;;;5074131;28;20197;-78
2022/07/17 01:34:36;;;;;;;13.98;7.85;;;24.60;83.10;;;;;;5066385;28;20221;-76
2022/07/17 01:37:06;;;;;;;10.35;6.30;;;24.60;83.00;;;;;;5065483;28;20222;-78
2022/07/17 01:39:53;;;;;;;10.68;6.25;;;24.60;82.90;;;;;;5052357;28;20199;-77
2022/07/17 01:42:22;;;;;;;8.98;6.05;;;24.60;82.90;;;;;;5067256;28;20202;-77
2022/07/17 01:44:51;;;;;;;8.50;5.65;;;24.50;82.70;;;;;;5066714;28;20443;-77
2022/07/17 01:47:20;;;;;;;8.57;5.55;;;24.60;82.60;;;;;;5058650;28;20209;-77
2022/07/17 01:49:49;;;;;;;8.60;5.15;;;24.60;82.50;;;;;;5062788;28;20190;-77
2022/07/17 01:52:18;;;;;;;7.63;5.10;;;24.50;82.30;;;;;;5055607;28;20527;-77
2022/07/17 01:54:49;;;;;;;8.18;5.53;;;24.50;82.20;;;;;;5070030;28;20193;-77
2022/07/17 01:57:18;;;;;;;10.60;6.00;;;24.50;82.10;;;;;;5050507;28;20215;-78
2022/07/17 01:59:46;;;;;;;9.00;5.53;;;24.50;82.00;;;;;;5067576;28;20579;-78
2022/07/17 02:02:16;;;;;;;15.27;5.93;;;24.50;82.00;;;;;;5058193;28;20228;-78
2022/07/17 02:04:46;;;;;;;8.00;5.80;;;24.50;82.00;;;;;;5055080;28;20649;-78
2022/07/17 02:07:14;;;;;;;8.77;5.68;;;24.50;82.10;;;;;;5059913;28;20234;-78
2022/07/17 02:09:43;;;;;;;11.30;6.63;;;24.50;82.10;;;;;;5062919;28;20683;-79
2022/07/17 02:12:13;;;;;;;11.57;6.30;;;24.50;82.10;;;;;;5061560;28;20650;-78
2022/07/17 02:14:41;;;;;;;8.93;5.90;;;24.50;82.20;;;;;;5062348;28;20191;-78
2022/07/17 02:17:09;;;;;;;8.63;6.15;;;24.40;82.10;;;;;;5059677;28;20219;-78
2022/07/17 02:19:38;;;;;;;11.40;5.35;;;24.40;82.20;;;;;;5051579;28;20202;-78
2022/07/17 02:22:06;;;;;;;9.90;5.90;;;24.40;82.10;;;;;;5059992;28;20195;-77
2022/07/17 02:24:35;;;;;;;7.97;5.57;;;24.40;82.00;;;;;;5061917;28;20190;-78
2022/07/17 02:27:04;;;;;;;9.27;5.65;;;24.40;81.90;;;;;;5064957;28;20823;-77
2022/07/17 02:29:33;;;;;;;8.98;5.65;;;24.40;81.90;;;;;;5051976;28;20190;-77
2022/07/17 02:32:02;;;;;;;8.43;5.20;;;24.50;81.80;;;;;;5051511;28;20707;-77
2022/07/17 02:34:31;;;;;;;7.78;4.97;;;24.40;81.60;;;;;;5051682;28;20190;-77
2022/07/17 02:36:59;;;;;;;9.02;4.82;;;24.40;81.40;;;;;;5055789;28;20217;-77
2022/07/17 02:39:27;;;;;;;6.43;4.80;;;24.40;81.20;;;;;;5059525;28;20190;-78
2022/07/17 02:41:56;;;;;;;10.23;3.97;;;24.40;80.90;;;;;;5057667;28;21115;-77
2022/07/17 02:44:24;;;;;;;4.93;3.20;;;24.50;80.50;;;;;;5054388;28;20703;-77
2022/07/17 02:46:54;;;;;;;6.32;3.65;;;24.50;79.90;;;;;;5060294;28;20202;-77
2022/07/17 02:49:23;;;;;;;6.53;3.65;;;24.50;79.50;;;;;;5063483;28;20201;-76
2022/07/17 02:51:51;;;;;;;6.63;3.38;;;24.50;78.90;;;;;;5062327;28;20199;-77
2022/07/17 02:54:20;;;;;;;6.75;3.40;;;24.50;78.50;;;;;;5060797;28;20182;-78
2022/07/17 02:56:48;;;;;;;9.95;3.95;;;24.50;78.00;;;;;;5042586;28;20569;-78
2022/07/17 02:59:17;;;;;;;9.00;3.88;;;24.50;77.70;;;;;;5058317;28;20920;-77
2022/07/17 03:01:45;;;;;;;6.75;3.83;;;24.40;77.30;;;;;;5061796;28;20195;-77
2022/07/17 03:04:15;;;;;;;7.43;3.75;;;24.50;77.30;;;;;;5064857;28;20194;-77
2022/07/17 03:06:44;;;;;;;6.82;4.07;;;24.40;76.90;;;;;;5060847;28;20253;-77
2022/07/17 03:09:18;;;;;;;8.10;3.78;;;24.40;76.70;;;;;;5051465;28;20563;-78
2022/07/17 03:11:47;;;;;;;5.68;3.85;;;24.40;76.70;;;;;;5057437;28;20645;-77
2022/07/17 03:14:15;;;;;;;6.32;4.07;;;24.40;76.60;;;;;;5050150;28;20198;-78
2022/07/17 03:16:44;;;;;;;5.55;3.42;;;24.40;76.50;;;;;;5060231;28;20965;-77
2022/07/17 03:19:14;;;;;;;6.60;3.88;;;24.30;76.30;;;;;;5068731;28;20214;-77
2022/07/17 03:21:42;;;;;;;8.50;4.07;;;24.30;76.10;;;;;;5067012;28;20970;-78
2022/07/17 03:24:11;;;;;;;8.40;4.68;;;24.30;76.10;;;;;;5064741;28;20209;-78
2022/07/17 03:26:39;;;;;;;6.05;3.83;;;24.30;76.20;;;;;;5055414;28;20567;-81
2022/07/17 03:29:08;;;;;;;7.07;3.65;;;24.30;76.10;;;;;;5065106;28;20243;-79
2022/07/17 03:31:36;;;;;;;6.80;4.18;;;24.30;76.10;;;;;;5066007;28;20214;-78
2022/07/17 03:34:05;;;;;;;7.55;3.50;;;24.30;76.20;;;;;;5065102;28;20205;-79
2022/07/17 03:36:34;;;;;;;5.75;3.50;;;24.30;76.30;;;;;;5069260;28;20228;-79
2022/07/17 03:39:03;;;;;;;5.75;3.45;;;24.30;76.30;;;;;;5071359;28;20635;-78
2022/07/17 03:41:31;;;;;;;9.35;4.28;;;24.30;76.20;;;;;;5063359;28;20190;-78
2022/07/17 03:44:00;;;;;;;7.43;3.20;;;24.30;76.10;;;;;;5066075;28;20194;-78
2022/07/17 03:46:28;;;;;;;7.72;3.42;;;24.30;76.00;;;;;;5058262;28;20195;-78
2022/07/17 03:48:57;;;;;;;7.97;3.28;;;24.30;75.90;;;;;;5064555;28;20230;-78
2022/07/17 03:51:26;;;;;;;7.85;3.65;;;24.30;75.70;;;;;;5053558;28;20308;-78
2022/07/17 03:53:56;;;;;;;8.13;4.30;;;24.30;75.70;;;;;;5059614;28;20199;-79
2022/07/17 03:56:25;;;;;;;4.90;3.47;;;24.20;75.70;;;;;;5052657;28;20850;-78
2022/07/17 03:58:53;;;;;;;8.80;4.03;;;24.20;75.70;;;;;;5060404;28;20197;-78
2022/07/17 04:01:21;;;;;;;6.43;3.95;;;24.20;75.80;;;;;;5058347;28;20195;-78
2022/07/17 04:03:50;;;;;;;7.18;4.53;;;24.10;75.80;;;;;;5062721;28;20194;-78
2022/07/17 04:06:18;;;;;;;6.97;4.15;;;24.20;76.00;;;;;;5052875;28;20199;-78
2022/07/17 04:08:47;;;;;;;8.55;4.40;;;24.20;76.10;;;;;;5050624;28;20213;-78
2022/07/17 04:11:17;;;;;;;8.55;3.90;;;24.10;76.10;;;;;;5060847;28;20194;-77
2022/07/17 04:13:45;;;;;;;7.28;3.78;;;24.10;75.90;;;;;;5053983;28;20205;-78
2022/07/17 04:16:14;;;;;;;6.20;4.15;;;24.10;76.00;;;;;;5055396;28;20201;-79
2022/07/17 04:18:42;;;;;;;8.23;3.53;;;24.10;75.90;;;;;;5043666;28;20272;-78
2022/07/17 04:21:13;;;;;;;4.30;2.95;;;24.10;75.70;;;;;;5056651;28;20223;-78
2022/07/17 04:23:41;;;;;;;9.25;3.67;;;24.10;75.50;;;;;;5062729;28;20190;-78
2022/07/17 04:26:09;;;;;;;7.50;3.47;;;24.10;75.50;;;;;;5057588;28;20199;-78
2022/07/17 04:28:40;;;;;;;6.07;2.95;;;24.20;75.50;;;;;;5061487;28;20709;-77
2022/07/17 04:31:09;;;;;;;5.50;2.42;;;24.20;75.00;;;;;;5061209;28;20197;-78
2022/07/17 04:33:38;;;;;;;4.13;2.28;;;24.20;74.60;;;;;;5061504;28;20248;-78
2022/07/17 04:36:06;;;;;;;6.45;2.33;;;24.30;74.20;;;;;;5056861;28;20191;-78
2022/07/17 04:38:35;;;;;;;4.25;2.40;;;24.30;73.80;;;;;;5060254;28;20224;-77
2022/07/17 04:41:03;;;;;;;4.22;2.67;;;24.30;73.60;;;;;;5054867;28;20195;-78
2022/07/17 04:43:31;;;;;;;4.18;2.50;;;24.40;73.20;;;;;;5067059;28;20198;-78
2022/07/17 04:46:01;;;;;;;7.75;2.85;;;24.50;73.10;;;;;;5065685;28;20218;-78
2022/07/17 04:48:29;;;;;;;5.30;2.70;;;24.50;72.70;;;;;;5070321;28;20190;-78
2022/07/17 04:50:58;;;;;;;5.82;2.47;;;24.60;72.40;;;;;;5065374;28;20834;-78
2022/07/17 04:53:26;;;;;;;9.18;2.30;;;24.60;72.30;;;;;;5067283;28;20760;-78
2022/07/17 04:55:55;;;;;;;8.77;2.50;;;24.70;72.20;;;;;;5064936;28;20707;-77
2022/07/17 04:58:23;;;;;;;5.43;2.47;;;24.70;71.70;;;;;;5062619;28;20314;-77
2022/07/17 05:00:52;;;;;;;4.35;2.53;;;24.80;71.70;;;;;;5060106;28;20190;-78
2022/07/17 05:03:21;;;;;;;7.75;2.40;;;24.80;71.60;;;;;;5064430;28;20281;-77
2022/07/17 05:05:50;;;;;;;8.88;2.40;;;24.90;71.40;;;;;;5066132;28;20206;-77
2022/07/17 05:08:18;;;;;;;6.55;2.38;;;25.00;71.30;;;;;;5065072;28;20937;-78
2022/07/17 05:10:47;;;;;;;6.90;2.50;;;25.00;71.20;;;;;;5066901;28;20220;-77
2022/07/17 05:13:15;;;;;;;10.60;2.42;;;25.00;71.10;;;;;;5061385;28;20641;-77
2022/07/17 05:15:44;;;;;;;3.95;2.00;;;25.10;70.80;;;;;;5067555;28;20767;-77
2022/07/17 05:18:12;;;;;;;4.78;1.98;;;25.10;70.50;;;;;;5065906;28;20218;-77
2022/07/17 05:20:42;;;;;;;3.33;2.10;;;25.20;70.00;;;;;;5071313;28;20194;-77
2022/07/17 05:23:11;;;;;;;6.75;3.00;;;25.20;69.70;;;;;;5063496;28;20194;-77
2022/07/17 05:25:39;;;;;;;4.47;2.33;;;25.20;69.70;;;;;;5068271;28;20191;-77
2022/07/17 05:28:08;;;;;;;5.57;2.20;;;25.30;69.80;;;;;;5066339;28;20718;-76
2022/07/17 05:30:36;;;;;;;3.63;1.85;;;25.30;69.80;;;;;;5068275;28;20198;-77
2022/07/17 05:33:05;;;;;;;3.22;2.05;;;25.30;70.00;;;;;;5065244;28;20196;-77
2022/07/17 05:35:33;;;;;;;3.78;2.22;;;25.30;70.00;;;;;;5060356;28;20194;-76
2022/07/17 05:38:03;;;;;;;10.20;2.58;;;25.30;69.80;;;;;;5070626;28;20221;-77
2022/07/17 05:40:31;;;;;;;4.90;2.00;;;25.40;69.50;;;;;;5062266;28;20202;-77
2022/07/17 05:43:00;;;;;;;3.63;2.22;;;25.40;69.30;;;;;;5060193;28;20186;-77
2022/07/17 05:45:28;;;;;;;5.65;2.20;;;25.40;69.20;;;;;;5071898;28;20222;-79
2022/07/17 05:47:56;;;;;;;6.50;2.50;;;25.50;69.30;;;;;;5061623;28;20197;-76
2022/07/17 05:50:25;;;;;;;4.28;2.40;;;25.60;69.40;;;;;;5067265;28;20201;-76
2022/07/17 05:52:53;;;;;;;4.85;2.20;;;25.60;69.50;;;;;;5072025;28;20209;-75
2022/07/17 05:55:23;;;;;;;5.70;2.60;;;25.60;69.50;;;;;;5067533;28;20815;-76
2022/07/17 05:57:51;;;;;;;3.50;2.17;;;25.60;69.50;;;;;;5063335;28;20229;-75
2022/07/17 06:00:20;;;;;;;4.68;2.13;;;25.70;69.50;;;;;;5067174;28;20252;-76
2022/07/17 06:02:48;;;;;;;5.10;2.20;;;25.70;69.40;;;;;;5071185;28;20209;-77
2022/07/17 06:05:17;;;;;;;5.97;2.25;;;25.80;69.60;;;;;;5063826;28;20195;-75
2022/07/17 06:07:48;;;;;;;6.88;2.90;;;26.00;69.90;;;;;;5062832;28;20655;-76
2022/07/17 06:10:16;;;;;;;4.60;2.67;;;26.00;69.70;;;;;;5073031;28;20197;-77
2022/07/17 06:12:46;;;;;;;5.15;2.22;;;26.10;69.70;;;;;;5065271;28;20191;-76
2022/07/17 06:15:15;;;;;;;3.90;2.40;;;26.20;69.70;;;;;;5068802;28;20190;-76
2022/07/17 06:17:43;;;;;;;4.90;2.10;;;26.20;68.80;;;;;;5061463;28;20297;-75
2022/07/17 06:20:12;;;;;;;2.90;1.75;;;26.30;68.60;;;;;;5059413;28;20806;-75
2022/07/17 06:22:41;;;;;;;6.95;2.15;;;26.40;67.90;;;;;;5067630;28;20201;-74
2022/07/17 06:25:11;;;;;;;14.05;2.70;;;26.40;67.30;;;;;;5062569;28;20199;-76
2022/07/17 06:27:41;;;;;;;10.35;2.67;;;26.50;66.90;;;;;;5058574;28;20205;-75
2022/07/17 06:30:12;;;;;;;4.18;2.50;;;26.60;66.20;;;;;;5061482;28;20186;-76
2022/07/17 06:32:41;;;;;;;5.05;2.40;;;26.60;65.90;;;;;;5061006;28;20198;-75
2022/07/17 06:35:10;;;;;;;5.07;2.60;;;26.70;66.20;;;;;;5062828;28;20195;-75
2022/07/17 06:37:39;;;;;;;4.18;2.10;;;26.80;66.10;;;;;;5070905;28;20186;-76
2022/07/17 06:40:08;;;;;;;4.20;2.20;;;26.90;65.80;;;;;;5067893;28;20194;-75
2022/07/17 06:42:37;;;;;;;5.15;2.20;;;27.00;66.00;;;;;;5064964;28;20717;-75
2022/07/17 06:45:06;;;;;;;4.25;2.22;;;27.00;65.90;;;;;;5061648;28;20226;-76
2022/07/17 06:47:38;;;;;;;4.30;2.15;;;27.10;65.80;;;;;;5060297;28;20298;-76
2022/07/17 06:50:08;;;;;;;9.88;3.42;;;27.20;65.50;;;;;;5062344;28;20202;-77
2022/07/17 06:52:36;;;;;;;4.28;1.80;;;27.20;64.40;;;;;;5060492;28;20191;-76
2022/07/17 06:55:10;;;;;;;4.10;2.17;;;27.20;64.00;;;;;;5049591;28;20206;-77
2022/07/17 06:57:38;;;;;;;3.17;1.85;;;27.20;61.50;;;;;;5050666;28;20197;-76
2022/07/17 07:00:09;;;;;;;3.15;2.22;;;27.20;60.70;;;;;;5065693;28;20268;-75
2022/07/17 07:02:39;;;;;;;3.38;2.00;;;27.20;60.80;;;;;;5059761;28;20191;-78
2022/07/17 07:05:08;;;;;;;4.40;2.13;;;27.20;60.30;;;;;;5068831;28;20189;-75
2022/07/17 07:07:36;;;;;;;5.47;2.67;;;27.20;60.70;;;;;;5070520;28;20186;-76
2022/07/17 07:10:05;;;;;;;3.67;1.85;;;27.30;60.70;;;;;;5070009;28;20385;-77
2022/07/17 07:12:33;;;;;;;6.32;2.17;;;27.40;60.90;;;;;;5060922;28;20210;-76
2022/07/17 07:15:02;;;;;;;5.28;2.10;;;27.40;61.10;;;;;;5062390;28;20187;-76
2022/07/17 07:17:40;;;;;;;6.18;2.30;;;27.50;61.20;;;;;;5066894;28;20702;-77
2022/07/17 07:20:10;;;;;;;8.75;2.03;;;27.60;61.10;;;;;;5058550;28;20222;-77
2022/07/17 07:22:39;;;;;;;3.00;2.03;;;27.60;61.20;;;;;;5066240;28;20199;-77
2022/07/17 07:25:08;;;;;;;4.70;2.10;;;27.70;59.70;;;;;;5068081;28;20750;-77
2022/07/17 07:27:36;;;;;;;6.22;1.92;;;27.70;59.50;;;;;;5057497;28;20604;-75
2022/07/17 07:30:09;;;;;;;5.30;1.80;;;27.80;58.20;;;;;;5068364;28;20185;-77
2022/07/17 07:32:41;;;;;;;4.68;1.80;;;27.80;58.70;;;;;;5060677;28;20221;-76
2022/07/17 07:35:10;;;;;;;5.40;2.00;;;27.80;58.40;;;;;;5055785;28;20198;-77
2022/07/17 07:37:39;;;;;;;3.47;1.95;;;27.90;58.30;;;;;;5051046;28;20300;-77
2022/07/17 07:40:08;;;;;;;3.00;2.15;;;27.90;57.80;;;;;;5055367;28;20218;-77
2022/07/17 07:42:36;;;;;;;5.03;1.98;;;27.90;57.60;;;;;;5065390;28;20190;-77
2022/07/17 07:45:06;;;;;;;4.18;2.00;;;28.00;58.10;;;;;;5070642;28;20267;-78
2022/07/17 07:47:43;;;;;;;6.95;1.92;;;28.00;57.90;;;;;;5065324;28;20214;-76
2022/07/17 07:50:12;;;;;;;8.13;1.80;;;28.00;57.50;;;;;;5071392;28;20281;-77
2022/07/17 07:52:41;;;;;;;4.55;1.88;;;28.10;58.20;;;;;;5058148;28;20232;-77
2022/07/17 07:55:10;;;;;;;4.18;1.90;;;28.10;56.10;;;;;;5066480;28;20194;-79
2022/07/17 07:57:47;;;;;;;6.05;1.55;;;28.10;55.90;;;;;;5045477;28;20248;-78
2022/07/17 08:00:16;;;;;;;3.22;1.70;;;28.20;56.00;;;;;;5069170;28;20233;-78
2022/07/17 08:02:46;;;;;;;4.70;2.03;;;28.20;56.50;;;;;;5071767;28;20199;-77
2022/07/17 08:05:14;;;;;;;4.40;2.00;;;28.30;55.90;;;;;;5060437;28;20823;-77
2022/07/17 08:07:43;;;;;;;3.35;1.90;;;28.30;55.20;;;;;;5066519;28;20194;-80
2022/07/17 08:10:11;;;;;;;5.07;2.08;;;28.30;55.70;;;;;;5059991;28;20190;-77
2022/07/17 08:12:40;;;;;;;4.50;1.90;;;28.40;55.90;;;;;;5060810;28;20656;-77
2022/07/17 08:15:14;;;;;;;3.38;1.92;;;28.50;55.80;;;;;;5057257;28;20194;-79
2022/07/17 08:17:42;;;;;;;2.95;1.67;;;28.50;54.70;;;;;;5065760;28;20565;-79
2022/07/17 08:20:13;;;;;;;3.42;1.85;;;28.50;54.20;;;;;;5064498;28;20218;-79
2022/07/17 08:22:42;;;;;;;2.92;1.55;;;28.60;54.60;;;;;;5051819;28;20205;-80
2022/07/17 08:25:31;;;;;;;6.18;1.70;;;28.60;54.70;;;;;;5059376;28;20190;-79
2022/07/17 08:28:00;;;;;;;3.67;1.70;;;28.70;54.20;;;;;;5057972;28;20191;-77
2022/07/17 08:30:31;;;;;;;7.75;1.77;;;28.80;53.60;;;;;;5055788;28;20194;-81
2022/07/17 08:32:59;;;;;;;3.40;1.73;;;28.80;53.70;;;;;;5062725;28;20209;-79
2022/07/17 08:35:29;;;;;;;4.00;2.08;;;28.90;53.30;;;;;;5064433;28;20194;-80
2022/07/17 08:38:00;;;;;;;3.20;1.70;;;28.90;52.30;;;;;;5067673;28;20789;-79
2022/07/17 08:40:30;;;;;;;2.53;1.48;;;28.90;51.20;;;;;;5064338;28;20704;-80
2022/07/17 08:43:00;;;;;;;4.07;1.30;;;29.00;51.70;;;;;;5061945;28;20219;-78
2022/07/17 08:45:28;;;;;;;3.70;1.50;;;29.00;51.40;;;;;;5061603;28;20222;-78
2022/07/17 08:47:58;;;;;;;4.20;1.60;;;29.10;51.40;;;;;;5066218;28;20195;-79
2022/07/17 08:50:30;;;;;;;3.38;1.60;;;29.10;51.30;;;;;;5061926;28;20188;-80
2022/07/17 08:52:59;;;;;;;4.15;1.80;;;29.20;51.20;;;;;;5064641;28;20217;-77
2022/07/17 08:55:28;;;;;;;3.90;1.50;;;29.20;50.70;;;;;;5062579;28;20190;-81
2022/07/17 08:57:56;;;;;;;3.90;1.27;;;29.30;50.20;;;;;;5054316;28;20708;-79
2022/07/17 09:00:26;;;;;;;2.83;1.30;;;29.30;48.80;;;;;;5053822;28;20218;-78
2022/07/17 09:02:56;;;;;;;5.65;2.15;;;29.30;48.70;;;;;;5056325;28;20198;-78
2022/07/17 09:05:27;;;;;;;2.35;1.20;;;29.40;49.20;;;;;;5056009;28;20199;-77
2022/07/17 09:07:57;;;;;;;4.70;1.55;;;29.50;49.10;;;;;;5050685;28;20687;-77
2022/07/17 09:10:37;;;;;;;5.07;1.40;;;29.50;49.20;;;;;;5051959;28;20547;-78
2022/07/17 09:13:16;;;;;;;1.90;1.17;;;29.50;47.40;;;;;;5061355;28;20225;-76
2022/07/17 09:15:45;;;;;;;2.13;1.40;;;29.60;47.30;;;;;;5068321;28;20190;-79
2022/07/17 09:18:14;;;;;;;2.83;1.55;;;29.70;47.90;;;;;;5062585;28;20206;-77
2022/07/17 09:20:47;;;;;;;2.13;1.25;;;29.70;48.00;;;;;;5059386;28;20244;-78
2022/07/17 09:23:19;;;;;;;4.15;1.15;;;29.80;47.70;;;;;;5060992;28;20179;-76
2022/07/17 09:25:49;;;;;;;4.20;1.30;;;29.80;47.50;;;;;;5068382;28;20182;-75
2022/07/17 09:28:18;;;;;;;4.82;1.50;;;29.90;46.30;;;;;;5073024;28;20185;-75
2022/07/17 09:30:50;;;;;;;3.85;1.10;;;29.90;46.60;;;;;;5052522;28;20230;-80
2022/07/17 09:33:20;;;;;;;5.65;1.50;;;30.00;46.60;;;;;;5061999;28;20198;-78
2022/07/17 09:35:50;;;;;;;2.30;1.02;;;30.00;46.80;;;;;;5060196;28;20217;-78
2022/07/17 09:38:36;;;;;;;2.13;1.08;;;30.10;46.80;;;;;;5078745;28;20190;-79
2022/07/17 09:41:16;;;;;;;1.75;1.20;;;30.20;46.40;;;;;;5061434;28;20854;-81
2022/07/17 09:43:50;;;;;;;1.20;1.00;;;30.20;46.40;;;;;;5064280;28;20190;-78
2022/07/17 09:46:21;;;;;;;4.38;1.35;;;30.30;45.70;;;;;;5063407;28;20186;-81
2022/07/17 09:48:52;;;;;;;3.05;1.30;;;30.30;45.50;;;;;;5060570;28;20893;-79
2022/07/17 09:51:23;;;;;;;3.95;1.45;;;30.40;45.30;;;;;;5062805;28;20196;-80
2022/07/17 09:53:57;;;;;;;4.70;1.67;;;30.40;45.20;;;;;;5068541;28;20191;-78
2022/07/17 09:56:30;;;;;;;3.45;1.23;;;30.50;45.20;;;;;;5053739;28;20908;-78
2022/07/17 09:59:03;;;;;;;2.25;1.40;;;30.60;45.10;;;;;;5065239;28;20194;-78
2022/07/17 10:01:32;;;;;;;3.47;1.48;;;30.60;44.50;;;;;;5063380;28;20229;-79
2022/07/17 10:04:02;;;;;;;2.30;1.15;;;30.70;44.40;;;;;;5062510;28;20652;-79
2022/07/17 10:06:32;;;;;;;2.15;1.17;;;30.70;44.50;;;;;;5064077;28;20960;-78
2022/07/17 10:09:04;;;;;;;2.63;1.13;;;30.80;44.70;;;;;;5064540;28;20283;-77
2022/07/17 10:11:36;;;;;;;3.33;1.60;;;30.80;44.70;;;;;;5066454;28;20198;-78
2022/07/17 10:14:15;;;;;;;2.22;1.30;;;30.90;44.30;;;;;;5061361;28;20217;-81
2022/07/17 10:16:45;;;;;;;3.15;1.60;;;30.90;43.90;;;;;;5052326;28;20190;-80
2022/07/17 10:19:19;;;;;;;1.65;1.15;;;31.00;44.20;;;;;;5060048;28;20198;-77
2022/07/17 10:21:56;;;;;;;2.53;1.65;;;31.10;44.50;;;;;;5072772;28;20220;-78
2022/07/17 10:24:26;;;;;;;2.58;1.30;;;31.10;44.00;;;;;;5062809;28;20190;-77
2022/07/17 10:26:55;;;;;;;2.55;1.48;;;31.20;43.60;;;;;;5070623;28;20190;-80
2022/07/17 10:29:29;;;;;;;2.53;1.42;;;31.30;44.00;;;;;;5073554;28;20280;-78
2022/07/17 10:31:58;;;;;;;2.88;1.30;;;31.40;44.00;;;;;;5064629;28;20265;-78
2022/07/17 10:34:45;;;;;;;5.18;1.92;;;31.40;43.80;;;;;;5062009;28;20195;-79
2022/07/17 10:37:22;;;;;;;2.55;1.40;;;31.50;43.60;;;;;;5060217;28;20836;-79
2022/07/17 10:39:57;;;;;;;3.60;1.27;;;31.50;43.00;;;;;;5054986;28;20718;-79
2022/07/17 10:42:41;;;;;;;2.92;1.55;;;31.40;43.50;;;;;;5059617;28;20201;-79
2022/07/17 10:45:12;;;;;;;5.88;1.85;;;31.40;43.80;;;;;;5061956;28;20604;-79
2022/07/17 10:47:54;;;;;;;3.15;1.35;;;31.40;43.90;;;;;;5066236;28;20191;-79
2022/07/17 10:50:25;;;;;;;2.92;1.95;;;31.40;43.90;;;;;;5060849;28;20193;-79
2022/07/17 10:53:07;;;;;;;3.03;1.40;;;31.40;43.90;;;;;;5064323;28;20218;-78
2022/07/17 10:55:39;;;;;;;3.58;1.52;;;31.50;43.50;;;;;;5055478;28;20199;-78
2022/07/17 10:58:15;;;;;;;2.60;1.17;;;31.60;43.30;;;;;;5060966;28;20347;-77
2022/07/17 11:01:13;;;;;;;2.47;1.73;;;31.70;43.10;;;;;;5070850;28;20215;-77
2022/07/17 11:03:44;;;;;;;3.13;1.40;;;31.80;43.00;;;;;;5048409;28;20283;-82
2022/07/17 11:06:16;;;;;;;3.50;1.40;;;31.80;42.70;;;;;;5062112;28;20282;-82
2022/07/17 11:08:46;;;;;;;2.85;1.50;;;32.00;42.30;;;;;;5064714;28;20202;-81
2022/07/17 11:11:18;;;;;;;5.35;1.85;;;32.10;41.30;;;;;;5060482;28;20190;-76
2022/07/17 11:13:53;;;;;;;3.33;1.30;;;32.10;41.10;;;;;;5063902;28;20546;-78
2022/07/17 11:16:28;;;;;;;4.20;1.58;;;32.10;41.20;;;;;;5060072;28;20190;-79
2022/07/17 11:18:58;;;;;;;2.17;1.30;;;32.20;40.80;;;;;;5063013;28;20182;-78
2022/07/17 11:21:27;;;;;;;2.97;1.40;;;32.20;40.00;;;;;;5061472;28;20233;-76
2022/07/17 11:23:57;;;;;;;2.55;1.40;;;32.30;39.40;;;;;;5063976;28;20225;-78
2022/07/17 11:26:27;;;;;;;3.67;1.30;;;32.40;39.50;;;;;;5070824;28;20194;-78
2022/07/17 11:28:57;;;;;;;3.70;1.70;;;32.30;39.90;;;;;;5064951;28;20206;-81
2022/07/17 11:31:30;;;;;;;4.80;1.98;;;32.30;39.80;;;;;;5071263;28;20186;-78
2022/07/17 11:34:01;;;;;;;4.65;2.22;;;32.30;40.10;;;;;;5063022;28;20194;-78
2022/07/17 11:36:32;;;;;;;5.78;2.50;;;32.30;40.00;;;;;;5062854;28;20199;-76
2022/07/17 11:39:02;;;;;;;3.00;1.83;;;32.40;40.30;;;;;;5067423;28;20190;-76
2022/07/17 11:41:37;;;;;;;2.38;1.50;;;32.40;40.30;;;;;;5069406;28;20224;-78
2022/07/17 11:44:07;;;;;;;1.73;1.27;;;32.50;39.30;;;;;;5062319;28;20188;-80
2022/07/17 11:46:36;;;;;;;1.90;1.30;;;32.60;39.70;;;;;;5073575;28;20198;-78
2022/07/17 11:49:06;;;;;;;3.35;1.60;;;32.70;39.30;;;;;;5062732;28;20289;-79
2022/07/17 11:51:37;;;;;;;4.68;2.88;;;32.70;39.50;;;;;;5072733;28;20189;-81
2022/07/17 11:54:07;;;;;;;2.08;1.17;;;32.60;38.60;;;;;;5067117;28;20194;-81
2022/07/17 11:56:37;;;;;;;1.95;1.33;;;32.70;38.80;;;;;;5065360;28;20267;-80
2022/07/17 11:59:07;;;;;;;3.25;1.52;;;32.70;38.50;;;;;;5063405;28;20190;-83
2022/07/17 12:01:43;;;;;;;2.38;1.40;;;32.70;38.10;;;;;;5062001;28;20223;-77
2022/07/17 12:04:13;;;;;;;2.53;1.55;;;32.80;38.50;;;;;;5059890;28;20205;-81
2022/07/17 12:06:45;;;;;;;2.65;1.45;;;32.80;38.70;;;;;;5063025;28;20286;-80
2022/07/17 12:09:29;;;;;;;3.72;1.40;;;32.70;37.80;;;;;;5061515;28;20276;-78
2022/07/17 12:11:59;;;;;;;2.33;1.35;;;32.80;37.60;;;;;;5065496;28;20872;-80
2022/07/17 12:14:27;;;;;;;4.55;1.33;;;32.90;38.60;;;;;;5070327;28;20186;-84
2022/07/17 12:16:58;;;;;;;2.67;1.30;;;32.80;38.00;;;;;;5062196;28;20777;-79
2022/07/17 12:19:30;;;;;;;3.80;1.80;;;32.80;38.20;;;;;;5059398;28;20239;-79
2022/07/17 12:22:01;;;;;;;3.70;1.95;;;32.70;38.30;;;;;;5056709;28;20210;-79
2022/07/17 12:24:32;;;;;;;4.40;2.20;;;32.70;38.30;;;;;;5067729;28;20191;-79
2022/07/17 12:27:04;;;;;;;5.45;2.30;;;32.60;38.40;;;;;;5060901;28;20941;-80
2022/07/17 12:29:33;;;;;;;3.47;1.95;;;32.60;38.50;;;;;;5061374;28;20868;-79
2022/07/17 12:32:03;;;;;;;4.53;2.10;;;32.50;38.60;;;;;;5065164;28;20293;-81
2022/07/17 12:34:32;;;;;;;5.07;2.88;;;32.60;38.90;;;;;;5059913;28;20202;-80
2022/07/17 12:37:04;;;;;;;5.97;2.45;;;32.70;39.20;;;;;;5068517;28;20194;-86
2022/07/17 12:39:33;;;;;;;5.72;2.83;;;32.70;39.30;;;;;;5068290;28;20191;-80
2022/07/17 12:42:03;;;;;;;5.00;2.35;;;32.70;39.40;;;;;;5065112;28;20228;-80
2022/07/17 12:44:31;;;;;;;5.05;2.40;;;32.80;39.30;;;;;;5062907;28;20230;-80
2022/07/17 12:47:00;;;;;;;4.25;1.92;;;32.90;39.40;;;;;;5063402;28;20208;-79
2022/07/17 12:49:29;;;;;;;3.83;1.90;;;33.00;38.80;;;;;;5060036;28;20194;-78
2022/07/17 12:51:57;;;;;;;3.78;1.63;;;33.00;38.80;;;;;;5063081;28;20211;-80
2022/07/17 12:54:27;;;;;;;2.58;1.67;;;33.00;37.60;;;;;;5055244;28;20201;-81
2022/07/17 12:56:55;;;;;;;4.05;1.60;;;33.10;38.20;;;;;;5068224;28;20200;-83
2022/07/17 12:59:25;;;;;;;2.20;1.48;;;33.10;38.50;;;;;;5070032;28;20190;-81
2022/07/17 13:01:54;;;;;;;2.25;0.93;;;33.20;38.70;;;;;;5066801;28;20214;-79